createdAt,value
2022-09-03T00:02:03.832Z,15.40
2022-09-03T00:05:09.990Z,15.40
2022-09-03T00:08:31.490Z,15.50
2022-09-03T00:11:27.682Z,15.40
2022-09-03T00:14:28.214Z,15.40
2022-09-03T00:17:21.409Z,15.50
2022-09-03T00:20:17.922Z,15.50
2022-09-03T00:23:07.838Z,15.60
2022-09-03T00:26:01.651Z,15.60
2022-09-03T00:28:56.338Z,15.50
2022-09-03T00:31:56.338Z,15.50
2022-09-03T00:34:49.882Z,15.60
2022-09-03T00:37:38.242Z,15.50
2022-09-03T00:40:43.787Z,15.50
2022-09-03T00:43:56.775Z,15.60
2022-09-03T00:47:01.035Z,15.50
2022-09-03T00:49:57.503Z,15.40
2022-09-03T00:53:09.540Z,15.40
2022-09-03T00:56:20.690Z,15.50
2022-09-03T00:59:07.407Z,15.50
2022-09-03T01:02:03.147Z,15.50
2022-09-03T01:05:10.544Z,15.50
2022-09-03T01:08:21.183Z,15.50
2022-09-03T01:11:40.348Z,15.60
2022-09-03T01:14:34.966Z,15.60
2022-09-03T01:17:59.559Z,15.70
2022-09-03T01:21:18.701Z,15.70
2022-09-03T01:24:18.288Z,15.70
2022-09-03T01:27:43.927Z,15.70
2022-09-03T01:30:38.946Z,15.70
2022-09-03T01:33:38.435Z,15.70
2022-09-03T01:37:03.144Z,15.70
2022-09-03T01:40:02.952Z,15.70
2022-09-03T01:43:17.737Z,15.70
2022-09-03T01:46:13.885Z,15.70
2022-09-03T01:49:32.500Z,15.60
2022-09-03T01:52:34.143Z,15.60
2022-09-03T01:55:50.458Z,15.60
2022-09-03T01:58:45.327Z,15.60
2022-09-03T02:01:37.808Z,15.50
2022-09-03T02:04:26.794Z,15.50
2022-09-03T02:07:13.611Z,15.50
2022-09-03T02:10:02.374Z,15.50
2022-09-03T02:12:56.684Z,15.50
2022-09-03T02:15:46.416Z,15.60
2022-09-03T02:18:57.712Z,15.70
2022-09-03T02:21:51.201Z,15.70
2022-09-03T02:24:38.321Z,15.60
2022-09-03T02:27:25.281Z,15.60
2022-09-03T02:30:12.412Z,15.70
2022-09-03T02:32:59.976Z,15.60
2022-09-03T02:35:47.603Z,15.60
2022-09-03T02:38:35.334Z,15.50
2022-09-03T02:41:24.076Z,15.40
2022-09-03T02:44:19.977Z,15.30
2022-09-03T02:47:07.981Z,15.30
2022-09-03T02:49:54.725Z,15.30
2022-09-03T02:52:41.489Z,15.30
2022-09-03T02:55:29.020Z,15.20
2022-09-03T02:58:15.842Z,15.10
2022-09-03T03:01:03.142Z,15.20
2022-09-03T03:03:50.271Z,15.20
2022-09-03T03:06:37.116Z,15.20
2022-09-03T03:09:26.970Z,15.20
2022-09-03T03:12:13.854Z,15.20
2022-09-03T03:15:00.579Z,15.20
2022-09-03T03:17:47.373Z,15.30
2022-09-03T03:20:34.723Z,15.30
2022-09-03T03:23:21.606Z,15.40
2022-09-03T03:26:11.088Z,15.50
2022-09-03T03:29:00.728Z,15.60
2022-09-03T03:31:47.473Z,15.60
2022-09-03T03:34:34.243Z,15.60
2022-09-03T03:37:21.006Z,15.60
2022-09-03T03:40:08.387Z,15.60
2022-09-03T03:42:57.387Z,15.60
2022-09-03T03:45:44.276Z,15.60
2022-09-03T03:48:32.659Z,15.60
2022-09-03T03:51:19.846Z,15.60
2022-09-03T03:54:06.949Z,15.60
2022-09-03T03:56:55.785Z,15.60
2022-09-03T03:59:42.800Z,15.60
2022-09-03T04:02:29.626Z,15.50
2022-09-03T04:05:16.539Z,15.50
2022-09-03T04:08:06.492Z,15.50
2022-09-03T04:10:53.255Z,15.50
2022-09-03T04:13:42.156Z,15.50
2022-09-03T04:16:29.634Z,15.50
2022-09-03T04:19:17.071Z,15.40
2022-09-03T04:22:04.154Z,15.40
2022-09-03T04:24:50.902Z,15.40
2022-09-03T04:27:38.393Z,15.40
2022-09-03T04:30:25.220Z,15.50
2022-09-03T04:33:16.150Z,15.40
2022-09-03T04:36:24.549Z,15.40
2022-09-03T04:39:11.657Z,15.40
2022-09-03T04:42:00.089Z,15.30
2022-09-03T04:44:46.933Z,15.20
2022-09-03T04:47:33.711Z,15.20
2022-09-03T04:50:20.443Z,15.10
2022-09-03T04:53:08.246Z,15.10
2022-09-03T04:55:55.147Z,15.10
2022-09-03T04:58:44.358Z,15.10
2022-09-03T05:01:33.474Z,15.10
2022-09-03T05:04:20.276Z,15.00
2022-09-03T05:07:07.411Z,15.00
2022-09-03T05:09:54.460Z,15.10
2022-09-03T05:12:41.183Z,15.20
2022-09-03T05:15:29.755Z,15.30
2022-09-03T05:18:16.488Z,15.40
2022-09-03T05:21:15.121Z,15.30
2022-09-03T05:24:02.962Z,15.30
2022-09-03T05:26:49.657Z,15.20
2022-09-03T05:29:36.408Z,15.20
2022-09-03T05:32:23.269Z,15.20
2022-09-03T05:35:10.999Z,15.20
2022-09-03T05:37:58.043Z,15.20
2022-09-03T05:40:44.792Z,15.30
2022-09-03T05:43:32.913Z,15.40
2022-09-03T05:46:20.506Z,15.30
2022-09-03T05:49:22.272Z,15.20
2022-09-03T05:52:10.083Z,15.10
2022-09-03T05:54:56.795Z,15.10
2022-09-03T05:57:43.612Z,15.10
2022-09-03T06:00:40.133Z,15.10
2022-09-03T06:03:29.904Z,15.10
2022-09-03T06:06:19.141Z,15.10
2022-09-03T06:09:14.431Z,15.10
2022-09-03T06:12:03.827Z,15.30
2022-09-03T06:14:54.036Z,15.40
2022-09-03T06:17:43.609Z,15.40
2022-09-03T06:20:39.591Z,15.40
2022-09-03T06:23:36.468Z,15.30
2022-09-03T06:26:31.239Z,15.40
2022-09-03T06:29:22.029Z,15.40
2022-09-03T06:32:11.138Z,15.40
2022-09-03T06:34:57.871Z,15.40
2022-09-03T06:37:54.486Z,15.50
2022-09-03T06:40:51.547Z,15.60
2022-09-03T06:43:44.732Z,15.70
2022-09-03T06:46:38.796Z,15.80
2022-09-03T06:49:28.992Z,15.70
2022-09-03T06:52:17.828Z,15.60
2022-09-03T06:55:05.032Z,15.40
2022-09-03T06:57:59.953Z,15.50
2022-09-03T07:00:46.880Z,15.50
2022-09-03T07:03:38.093Z,15.50
2022-09-03T07:06:29.546Z,15.70
2022-09-03T07:09:21.551Z,15.90
2022-09-03T07:12:13.810Z,15.90
2022-09-03T07:15:00.586Z,15.70
2022-09-03T07:17:47.388Z,15.60
2022-09-03T07:20:39.874Z,15.50
2022-09-03T07:23:26.754Z,15.60
2022-09-03T07:26:19.971Z,15.60
2022-09-03T07:29:10.376Z,15.70
2022-09-03T07:31:59.362Z,15.80
2022-09-03T07:34:50.583Z,15.90
2022-09-03T07:37:40.417Z,15.90
2022-09-03T07:40:27.286Z,16.00
2022-09-03T07:43:18.587Z,16.10
2022-09-03T07:46:06.988Z,16.20
2022-09-03T07:48:58.169Z,16.30
2022-09-03T07:51:46.482Z,16.30
2022-09-03T07:54:36.410Z,16.40
2022-09-03T07:57:26.910Z,16.40
2022-09-03T08:00:14.605Z,16.60
2022-09-03T08:03:06.112Z,16.70
2022-09-03T08:05:52.888Z,16.70
2022-09-03T08:08:40.527Z,16.70
2022-09-03T08:11:28.495Z,16.80
2022-09-03T08:14:16.478Z,16.90
2022-09-03T08:17:03.461Z,17.10
2022-09-03T08:19:50.952Z,17.40
2022-09-03T08:22:40.127Z,17.60
2022-09-03T08:25:27.013Z,17.80
2022-09-03T08:28:16.203Z,18.20
2022-09-03T08:31:11.422Z,18.50
2022-09-03T08:34:06.912Z,18.90
2022-09-03T08:36:54.470Z,19.30
2022-09-03T08:39:41.358Z,19.50
2022-09-03T08:42:52.124Z,19.80
2022-09-03T08:45:39.390Z,19.70
2022-09-03T08:48:28.388Z,19.70
2022-09-03T08:51:18.171Z,19.90
2022-09-03T08:54:07.616Z,20.00
2022-09-03T08:57:00.071Z,20.10
2022-09-03T08:59:51.582Z,20.20
2022-09-03T09:03:01.030Z,20.50
2022-09-03T09:05:58.031Z,20.80
2022-09-03T09:09:01.813Z,20.20
2022-09-03T09:11:48.654Z,19.90
2022-09-03T09:14:46.994Z,19.80
2022-09-03T09:17:51.155Z,19.70
2022-09-03T09:20:57.890Z,19.60
2022-09-03T09:23:50.050Z,19.50
2022-09-03T09:26:37.338Z,19.20
2022-09-03T09:29:28.021Z,19.10
2022-09-03T09:32:17.797Z,19.10
2022-09-03T09:35:11.401Z,19.10
2022-09-03T09:38:00.353Z,19.20
2022-09-03T09:40:47.224Z,19.40
2022-09-03T09:43:33.956Z,19.40
2022-09-03T09:46:23.370Z,19.30
2022-09-03T09:49:33.839Z,19.10
2022-09-03T09:52:25.670Z,19.00
2022-09-03T09:55:19.669Z,19.00
2022-09-03T09:58:14.533Z,18.80
2022-09-03T10:01:04.390Z,18.60
2022-09-03T10:04:00.117Z,18.50
2022-09-03T10:07:01.224Z,18.40
2022-09-03T10:10:02.480Z,18.30
2022-09-03T10:12:59.316Z,18.20
2022-09-03T10:15:51.394Z,18.20
2022-09-03T10:19:06.928Z,18.20
2022-09-03T10:22:18.085Z,18.10
2022-09-03T10:25:05.815Z,17.80
2022-09-03T10:27:56.728Z,17.00
2022-09-03T10:31:01.506Z,16.20
2022-09-03T10:34:14.153Z,15.80
2022-09-03T10:37:36.070Z,15.70
2022-09-03T10:41:03.171Z,15.60
2022-09-03T10:44:16.150Z,15.40
2022-09-03T10:47:12.707Z,15.40
2022-09-03T10:50:17.355Z,15.60
2022-09-03T10:53:22.050Z,15.80
2022-09-03T10:56:22.298Z,16.00
2022-09-03T10:59:09.047Z,16.30
2022-09-03T11:02:15.501Z,16.60
2022-09-03T11:05:07.663Z,16.90
2022-09-03T11:08:10.687Z,17.30
2022-09-03T11:11:09.397Z,17.60
2022-09-03T11:14:05.260Z,17.90
2022-09-03T11:16:59.009Z,18.30
2022-09-03T11:19:55.283Z,19.20
2022-09-03T11:22:46.955Z,20.70
2022-09-03T11:25:44.827Z,22.10
2022-09-03T11:28:42.162Z,22.20
2022-09-03T11:32:02.697Z,24.40
2022-09-03T11:34:52.051Z,26.50
2022-09-03T11:37:59.283Z,25.80
2022-09-03T11:41:25.836Z,24.20
2022-09-03T11:44:19.823Z,22.70
2022-09-03T11:47:51.271Z,21.60
2022-09-03T11:50:38.046Z,20.90
2022-09-03T11:53:28.321Z,20.30
2022-09-03T11:56:19.551Z,19.90
2022-09-03T11:59:19.471Z,19.60
2022-09-03T12:02:28.183Z,19.20
2022-09-03T12:05:27.698Z,19.20
2022-09-03T12:08:33.540Z,19.30
2022-09-03T12:11:39.259Z,19.90
2022-09-03T12:14:57.209Z,21.00
2022-09-03T12:17:49.174Z,23.10
2022-09-03T12:20:36.142Z,30.10
2022-09-03T12:23:30.962Z,34.30
2022-09-03T12:26:24.600Z,36.50
2022-09-03T12:29:27.824Z,36.90
2022-09-03T12:32:18.657Z,38.20
2022-09-03T12:35:13.279Z,40.20
2022-09-03T12:38:09.300Z,41.90
2022-09-03T12:44:04.449Z,38.50
2022-09-03T12:50:11.560Z,30.40
2022-09-03T12:53:03.556Z,28.10
2022-09-03T12:56:03.099Z,26.80
2022-09-03T12:58:59.858Z,27.60
2022-09-03T13:01:54.612Z,29.90
2022-09-03T13:04:48.754Z,31.80
2022-09-03T13:07:38.921Z,32.10
2022-09-03T13:10:42.430Z,31.00
2022-09-03T13:13:35.491Z,29.10
2022-09-03T13:16:44.207Z,27.90
2022-09-03T13:20:08.874Z,27.10
2022-09-03T13:23:13.569Z,26.60
2022-09-03T13:26:14.232Z,26.00
2022-09-03T13:29:40.136Z,25.80
2022-09-03T13:32:43.590Z,25.40
2022-09-03T13:36:14.877Z,24.90
2022-09-03T13:39:07.450Z,24.40
2022-09-03T13:42:06.125Z,24.20
2022-09-03T13:45:00.378Z,23.80
2022-09-03T13:48:29.032Z,23.40
2022-09-03T13:51:37.045Z,23.00
2022-09-03T13:54:48.199Z,22.80
2022-09-03T13:57:57.264Z,22.90
2022-09-03T14:00:52.454Z,23.40
2022-09-03T14:03:44.631Z,23.80
2022-09-03T14:07:10.143Z,24.10
2022-09-03T14:10:06.047Z,24.30
2022-09-03T14:13:16.183Z,24.40
2022-09-03T14:16:25.840Z,24.50
2022-09-03T14:19:12.598Z,24.40
2022-09-03T14:22:06.942Z,24.20
2022-09-03T14:25:02.769Z,24.20
2022-09-03T14:27:50.495Z,24.10
2022-09-03T14:30:58.078Z,24.00
2022-09-03T14:33:45.189Z,23.80
2022-09-03T14:36:44.645Z,23.60
2022-09-03T14:39:39.861Z,23.30
2022-09-03T14:42:51.715Z,23.20
2022-09-03T14:45:44.674Z,23.00
2022-09-03T14:48:50.283Z,22.90
2022-09-03T14:52:04.524Z,23.00
2022-09-03T14:55:25.336Z,23.20
2022-09-03T14:58:12.085Z,23.10
2022-09-03T15:01:16.094Z,22.80
2022-09-03T15:04:33.110Z,22.40
2022-09-03T15:07:34.138Z,22.30
2022-09-03T15:10:30.300Z,22.20
2022-09-03T15:13:21.055Z,22.00
2022-09-03T15:16:36.492Z,22.00
2022-09-03T15:19:48.476Z,21.80
2022-09-03T15:22:49.822Z,21.90
2022-09-03T15:25:45.812Z,22.10
2022-09-03T15:28:54.386Z,22.20
2022-09-03T15:31:55.260Z,22.20
2022-09-03T15:35:04.332Z,22.30
2022-09-03T15:38:05.445Z,22.50
2022-09-03T15:40:56.982Z,22.70
2022-09-03T15:43:49.852Z,22.90
2022-09-03T15:47:05.307Z,23.10
2022-09-03T15:50:15.672Z,23.00
2022-09-03T15:53:32.923Z,23.00
2022-09-03T15:56:29.132Z,22.80
2022-09-03T15:59:26.498Z,22.70
2022-09-03T16:02:28.048Z,22.70
2022-09-03T16:05:43.464Z,22.60
2022-09-03T16:08:52.597Z,22.50
2022-09-03T16:11:52.263Z,22.40
2022-09-03T16:14:47.024Z,22.30
2022-09-03T16:17:36.156Z,22.30
2022-09-03T16:20:33.158Z,22.20
2022-09-03T16:23:19.866Z,22.20
2022-09-03T16:26:29.922Z,22.20
2022-09-03T16:29:19.298Z,22.30
2022-09-03T16:32:26.935Z,22.20
2022-09-03T16:35:35.583Z,22.10
2022-09-03T16:39:00.380Z,22.10
2022-09-03T16:42:14.521Z,22.00
2022-09-03T16:45:33.860Z,22.00
2022-09-03T16:48:26.446Z,21.80
2022-09-03T16:51:52.198Z,21.70
2022-09-03T16:54:56.072Z,21.70
2022-09-03T16:58:15.273Z,21.50
2022-09-03T17:01:18.307Z,21.30
2022-09-03T17:04:35.480Z,21.20
2022-09-03T17:07:47.615Z,21.00
2022-09-03T17:11:08.833Z,20.90
2022-09-03T17:14:10.639Z,20.70
2022-09-03T17:17:25.508Z,20.60
2022-09-03T17:20:45.961Z,20.50
2022-09-03T17:24:02.422Z,20.40
2022-09-03T17:27:10.774Z,20.30
2022-09-03T17:30:06.094Z,20.20
2022-09-03T17:33:36.468Z,20.10
2022-09-03T17:36:28.170Z,20.00
2022-09-03T17:39:36.760Z,19.90
2022-09-03T17:42:28.990Z,19.90
2022-09-03T17:45:27.869Z,19.70
2022-09-03T17:48:14.925Z,19.70
2022-09-03T17:51:12.863Z,19.60
2022-09-03T17:54:48.074Z,19.60
2022-09-03T17:57:48.039Z,19.60
2022-09-03T18:00:58.715Z,19.50
2022-09-03T18:04:28.817Z,19.40
2022-09-03T18:07:44.144Z,19.40
2022-09-03T18:11:01.127Z,19.20
2022-09-03T18:14:09.583Z,19.10
2022-09-03T18:17:09.911Z,19.00
2022-09-03T18:20:21.784Z,18.90
2022-09-03T18:23:52.425Z,18.80
2022-09-03T18:27:11.384Z,18.70
2022-09-03T18:30:31.779Z,18.60
2022-09-03T18:33:42.135Z,18.40
2022-09-03T18:36:51.138Z,18.20
2022-09-03T18:39:59.657Z,18.10
2022-09-03T18:43:35.768Z,18.00
2022-09-03T18:50:48.491Z,17.90
2022-09-03T18:54:18.646Z,17.90
2022-09-03T18:57:40.612Z,17.90
2022-09-03T19:00:50.687Z,17.80
2022-09-03T19:04:40.141Z,17.70
2022-09-03T19:08:10.705Z,17.70
2022-09-03T19:11:28.134Z,17.70
2022-09-03T19:14:59.867Z,17.60
2022-09-03T19:18:41.687Z,17.50
2022-09-03T19:21:59.604Z,17.40
2022-09-03T19:25:13.135Z,17.20
2022-09-03T19:28:47.943Z,17.10
2022-09-03T19:32:34.350Z,16.90
2022-09-03T19:35:59.772Z,16.90
2022-09-03T19:39:21.353Z,16.80
2022-09-03T19:43:08.902Z,16.80
2022-09-03T19:46:53.050Z,16.80
2022-09-03T19:50:32.116Z,16.80
2022-09-03T19:53:40.582Z,16.80
2022-09-03T19:57:14.995Z,16.80
2022-09-03T20:00:29.421Z,16.60
2022-09-03T20:03:43.138Z,16.60
2022-09-03T20:06:52.228Z,16.50
2022-09-03T20:10:01.433Z,16.40
2022-09-03T20:12:52.240Z,16.40
2022-09-03T20:15:49.518Z,16.50
2022-09-03T20:18:51.348Z,16.50
2022-09-03T20:21:38.119Z,16.50
2022-09-03T20:24:39.979Z,16.40
2022-09-03T20:27:40.972Z,16.40
2022-09-03T20:31:08.566Z,16.50
2022-09-03T20:34:09.144Z,16.30
2022-09-03T20:37:09.472Z,16.30
2022-09-03T20:40:33.895Z,16.20
2022-09-03T20:43:26.720Z,16.20
2022-09-03T20:46:52.306Z,16.20
2022-09-03T20:50:10.165Z,16.20
2022-09-03T20:53:23.942Z,16.20
2022-09-03T20:56:15.503Z,16.00
2022-09-03T20:59:27.203Z,16.00
2022-09-03T21:02:30.140Z,16.00
2022-09-03T21:05:29.165Z,16.00
2022-09-03T21:08:46.325Z,16.10
2022-09-03T21:11:38.313Z,16.10
2022-09-03T21:14:54.194Z,16.10
2022-09-03T21:17:51.546Z,16.10
2022-09-03T21:21:12.421Z,16.10
2022-09-03T21:24:08.789Z,15.90
2022-09-03T21:27:20.828Z,15.80
2022-09-03T21:30:16.397Z,15.80
2022-09-03T21:33:12.167Z,15.70
2022-09-03T21:36:04.023Z,15.60
2022-09-03T21:39:24.720Z,15.60
2022-09-03T21:42:25.505Z,15.60
2022-09-03T21:45:25.144Z,15.40
2022-09-03T21:48:45.403Z,15.40
2022-09-03T21:51:58.681Z,15.40
2022-09-03T21:54:46.849Z,15.40
2022-09-03T21:57:52.186Z,15.40
2022-09-03T22:00:39.341Z,15.40
2022-09-03T22:03:28.830Z,15.40
2022-09-03T22:06:29.878Z,15.30
2022-09-03T22:09:41.968Z,15.20
2022-09-03T22:12:55.577Z,15.10
2022-09-03T22:15:52.447Z,15.20
2022-09-03T22:18:39.487Z,15.20
2022-09-03T22:21:32.131Z,15.20
2022-09-03T22:24:36.431Z,15.20
2022-09-03T22:27:28.818Z,15.30
2022-09-03T22:30:39.523Z,15.20
2022-09-03T22:33:45.611Z,15.20
2022-09-03T22:36:50.442Z,15.30
2022-09-03T22:39:46.114Z,15.20
2022-09-03T22:42:46.371Z,15.20
2022-09-03T22:46:04.661Z,15.20
2022-09-03T22:49:29.952Z,15.10
2022-09-03T22:52:32.711Z,15.10
2022-09-03T22:55:23.230Z,15.00
2022-09-03T22:58:38.931Z,15.00
2022-09-03T23:01:36.158Z,15.20
2022-09-03T23:04:43.889Z,15.20
2022-09-03T23:07:55.262Z,15.20
2022-09-03T23:11:07.618Z,15.20
2022-09-03T23:14:13.104Z,15.10
2022-09-03T23:17:13.038Z,15.10
2022-09-03T23:23:16.636Z,14.90
2022-09-03T23:26:13.478Z,14.80
2022-09-03T23:29:27.417Z,14.80
2022-09-03T23:32:19.921Z,14.80
2022-09-03T23:35:25.731Z,14.80
2022-09-03T23:38:35.895Z,14.80
2022-09-03T23:41:55.601Z,14.80
2022-09-03T23:45:08.570Z,14.80
2022-09-03T23:48:31.447Z,14.80
2022-09-03T23:51:50.831Z,14.70
2022-09-03T23:54:57.023Z,14.70
2022-09-03T23:58:06.259Z,14.60
